createdAt,value
2023-05-05T00:00:14.277Z,50.852760
2023-05-05T00:01:14.300Z,50.852768
2023-05-05T00:02:14.326Z,50.852798
2023-05-05T00:03:14.375Z,50.852798
2023-05-05T00:04:14.298Z,50.852779
2023-05-05T00:05:14.236Z,50.852798
2023-05-05T00:06:14.249Z,50.852776
2023-05-05T00:07:14.215Z,50.852840
2023-05-05T00:08:14.245Z,50.852802
2023-05-05T00:09:14.225Z,50.852798
2023-05-05T00:10:14.223Z,50.852798
2023-05-05T00:11:14.231Z,50.852779
2023-05-05T00:12:14.196Z,50.852806
2023-05-05T00:13:14.197Z,50.852795
2023-05-05T00:14:14.231Z,50.852806
2023-05-05T00:15:14.195Z,50.852783
2023-05-05T00:16:14.191Z,50.852791
2023-05-05T00:17:14.246Z,50.852783
2023-05-05T00:18:14.159Z,50.852798
2023-05-05T00:19:14.182Z,50.852795
2023-05-05T00:20:14.155Z,50.852779
2023-05-05T00:21:14.146Z,50.852791
2023-05-05T00:22:14.227Z,50.852821
2023-05-05T00:23:14.141Z,50.852764
2023-05-05T00:24:14.161Z,50.852776
2023-05-05T00:25:14.147Z,50.852818
2023-05-05T00:26:14.164Z,50.852806
2023-05-05T00:27:14.105Z,50.852825
2023-05-05T00:28:14.159Z,50.852776
2023-05-05T00:29:14.095Z,50.852795
2023-05-05T00:30:14.148Z,50.852825
2023-05-05T00:31:14.137Z,50.852856
2023-05-05T00:32:14.094Z,50.852798
2023-05-05T00:33:14.062Z,50.852829
2023-05-05T00:34:14.088Z,50.852848
2023-05-05T00:35:14.072Z,50.852802
2023-05-05T00:36:14.077Z,50.852787
2023-05-05T00:37:14.081Z,50.852787
2023-05-05T00:38:14.126Z,50.852787
2023-05-05T00:39:14.031Z,50.852806
2023-05-05T00:40:14.055Z,50.852802
2023-05-05T00:41:14.038Z,50.852791
2023-05-05T00:42:14.193Z,50.852802
2023-05-05T00:43:14.015Z,50.852818
2023-05-05T00:44:14.054Z,50.852798
2023-05-05T00:45:14.010Z,50.852783
2023-05-05T00:46:14.043Z,50.852795
2023-05-05T00:47:14.018Z,50.852818
2023-05-05T00:48:14.029Z,50.852833
2023-05-05T00:49:14.007Z,50.852787
2023-05-05T00:50:14.002Z,50.852821
2023-05-05T00:51:14.019Z,50.852802
2023-05-05T00:52:14.006Z,50.852779
2023-05-05T00:53:13.976Z,50.852821
2023-05-05T00:54:14.002Z,50.852814
2023-05-05T00:55:13.955Z,50.852818
2023-05-05T00:56:13.963Z,50.852821
2023-05-05T00:57:13.965Z,50.852795
2023-05-05T00:58:13.951Z,50.852776
2023-05-05T00:59:13.951Z,50.852936
2023-05-05T01:00:13.970Z,50.852867
2023-05-05T01:01:13.947Z,50.852814
2023-05-05T01:02:13.963Z,50.852818
2023-05-05T01:03:13.978Z,50.852615
2023-05-05T01:04:13.929Z,50.852760
2023-05-05T01:05:13.918Z,50.852909
2023-05-05T01:06:13.906Z,50.852909
2023-05-05T01:07:13.887Z,50.852875
2023-05-05T01:08:13.933Z,50.852821
2023-05-05T01:09:13.879Z,50.852852
2023-05-05T01:10:20.135Z,50.852837
2023-05-05T01:11:14.904Z,50.852833
2023-05-05T01:12:13.893Z,50.852806
2023-05-05T01:13:13.974Z,50.852798
2023-05-05T01:14:13.863Z,50.852802
2023-05-05T01:15:13.872Z,50.852806
2023-05-05T01:16:13.909Z,50.852829
2023-05-05T01:17:13.853Z,50.852833
2023-05-05T01:18:13.849Z,50.852814
2023-05-05T01:19:13.816Z,50.852844
2023-05-05T01:20:13.860Z,50.852802
2023-05-05T01:21:13.821Z,50.852783
2023-05-05T01:22:13.873Z,50.852795
2023-05-05T01:23:13.804Z,50.852798
2023-05-05T01:24:13.819Z,50.852791
2023-05-05T01:25:13.791Z,50.852818
2023-05-05T01:26:13.824Z,50.852814
2023-05-05T01:27:13.776Z,50.852825
2023-05-05T01:28:13.835Z,50.852810
2023-05-05T01:29:13.769Z,50.852882
2023-05-05T01:30:13.787Z,50.852798
2023-05-05T01:31:13.804Z,50.852821
2023-05-05T01:32:13.770Z,50.852818
2023-05-05T01:33:13.776Z,50.852810
2023-05-05T01:34:13.758Z,50.852802
2023-05-05T01:35:13.742Z,50.852795
2023-05-05T01:36:13.767Z,50.852795
2023-05-05T01:37:13.729Z,50.852814
2023-05-05T01:38:13.777Z,50.852810
2023-05-05T01:39:13.718Z,50.852814
2023-05-05T01:40:13.720Z,50.852848
2023-05-05T01:41:13.704Z,50.852825
2023-05-05T01:42:13.719Z,50.852795
2023-05-05T01:43:13.727Z,50.852810
2023-05-05T01:44:13.696Z,50.852859
2023-05-05T01:45:13.718Z,50.852852
2023-05-05T01:46:13.798Z,50.852852
2023-05-05T01:47:13.666Z,50.852848
2023-05-05T01:48:13.759Z,50.852776
2023-05-05T01:49:13.678Z,50.852783
2023-05-05T01:50:13.699Z,50.852825
2023-05-05T01:51:13.657Z,50.852818
2023-05-05T01:52:13.657Z,50.852806
2023-05-05T01:53:13.651Z,50.852833
2023-05-05T01:54:13.650Z,50.852821
2023-05-05T01:55:13.631Z,50.852810
2023-05-05T01:56:13.668Z,50.852810
2023-05-05T01:57:13.625Z,50.852802
2023-05-05T01:58:13.628Z,50.852806
2023-05-05T01:59:13.606Z,50.852825
2023-05-05T02:00:13.689Z,50.852818
2023-05-05T02:01:13.615Z,50.852821
2023-05-05T02:02:13.653Z,50.852821
2023-05-05T02:03:13.730Z,50.852783
2023-05-05T02:04:13.591Z,50.852821
2023-05-05T02:05:13.596Z,50.852791
2023-05-05T02:06:13.576Z,50.852776
2023-05-05T02:07:13.553Z,50.852791
2023-05-05T02:08:13.604Z,50.852833
2023-05-05T02:09:13.579Z,50.852791
2023-05-05T02:10:13.564Z,50.852776
2023-05-05T02:11:13.532Z,50.852818
2023-05-05T02:12:13.547Z,50.852840
2023-05-05T02:13:13.635Z,50.852821
2023-05-05T02:14:13.579Z,50.852814
2023-05-05T02:15:13.505Z,50.852814
2023-05-05T02:16:13.575Z,50.852821
2023-05-05T02:17:13.518Z,50.852814
2023-05-05T02:18:13.537Z,50.852806
2023-05-05T02:19:13.499Z,50.852798
2023-05-05T02:20:13.531Z,50.852787
2023-05-05T02:21:13.487Z,50.852764
2023-05-05T02:22:13.503Z,50.852783
2023-05-05T02:23:13.465Z,50.852802
2023-05-05T02:24:13.557Z,50.852791
2023-05-05T02:25:13.485Z,50.852764
2023-05-05T02:26:13.476Z,50.852795
2023-05-05T02:27:13.457Z,50.852818
2023-05-05T02:28:13.495Z,50.852795
2023-05-05T02:29:13.439Z,50.852810
2023-05-05T02:30:13.466Z,50.852821
2023-05-05T02:31:13.449Z,50.852772
2023-05-05T02:32:13.466Z,50.852798
2023-05-05T02:33:13.420Z,50.852802
2023-05-05T02:34:13.516Z,50.852779
2023-05-05T02:35:13.430Z,50.852745
2023-05-05T02:36:13.415Z,50.852749
2023-05-05T02:37:13.445Z,50.852787
2023-05-05T02:38:13.429Z,50.852779
2023-05-05T02:39:13.382Z,50.852795
2023-05-05T02:40:13.393Z,50.852795
2023-05-05T02:41:13.397Z,50.852779
2023-05-05T02:42:13.395Z,50.852787
2023-05-05T02:43:13.450Z,50.852768
2023-05-05T02:44:13.386Z,50.852783
2023-05-05T02:45:13.364Z,50.852859
2023-05-05T02:46:13.402Z,50.852810
2023-05-05T02:47:13.375Z,50.852783
2023-05-05T02:48:13.344Z,50.852772
2023-05-05T02:49:13.325Z,50.852764
2023-05-05T02:50:13.354Z,50.852791
2023-05-05T02:51:13.329Z,50.852840
2023-05-05T02:52:13.352Z,50.852818
2023-05-05T02:53:13.349Z,50.852760
2023-05-05T02:54:13.323Z,50.852768
2023-05-05T02:55:13.306Z,50.852737
2023-05-05T02:56:13.309Z,50.852882
2023-05-05T02:57:13.280Z,50.852821
2023-05-05T02:58:13.295Z,50.852779
2023-05-05T02:59:15.865Z,50.852840
2023-05-05T03:00:13.324Z,50.852825
2023-05-05T03:01:13.312Z,50.852783
2023-05-05T03:02:13.305Z,50.852837
2023-05-05T03:03:13.367Z,50.852814
2023-05-05T03:04:13.291Z,50.852825
2023-05-05T03:05:13.270Z,50.852795
2023-05-05T03:06:13.259Z,50.852772
2023-05-05T03:07:13.230Z,50.852802
2023-05-05T03:08:13.277Z,50.852810
2023-05-05T03:09:13.220Z,50.852787
2023-05-05T03:10:13.270Z,50.852821
2023-05-05T03:11:13.220Z,50.852825
2023-05-05T03:12:13.242Z,50.852844
2023-05-05T03:13:13.248Z,50.852787
2023-05-05T03:14:13.245Z,50.852818
2023-05-05T03:15:13.191Z,50.852772
2023-05-05T03:16:13.258Z,50.852760
2023-05-05T03:17:13.209Z,50.852810
2023-05-05T03:18:13.236Z,50.852833
2023-05-05T03:19:13.199Z,50.852814
2023-05-05T03:20:13.215Z,50.852829
2023-05-05T03:21:13.164Z,50.852833
2023-05-05T03:22:13.187Z,50.852840
2023-05-05T03:23:13.207Z,50.852791
2023-05-05T03:24:13.178Z,50.852810
2023-05-05T03:25:13.135Z,50.852802
2023-05-05T03:26:13.159Z,50.852806
2023-05-05T03:27:13.131Z,50.852802
2023-05-05T03:28:13.169Z,50.852818
2023-05-05T03:29:13.148Z,50.852814
2023-05-05T03:30:13.122Z,50.852787
2023-05-05T03:31:13.126Z,50.852814
2023-05-05T03:32:13.159Z,50.852833
2023-05-05T03:33:13.085Z,50.852882
2023-05-05T03:34:13.100Z,50.852852
2023-05-05T03:35:13.088Z,50.852859
2023-05-05T03:36:13.158Z,50.852859
2023-05-05T03:37:13.067Z,50.852829
2023-05-05T03:38:13.122Z,50.852795
2023-05-05T03:39:13.064Z,50.852814
2023-05-05T03:40:13.090Z,50.852825
2023-05-05T03:41:13.051Z,50.852787
2023-05-05T03:42:13.098Z,50.852772
2023-05-05T03:43:13.071Z,50.852806
2023-05-05T03:44:13.066Z,50.852833
2023-05-05T03:45:13.031Z,50.852802
2023-05-05T03:46:13.140Z,50.852810
2023-05-05T03:47:13.029Z,50.852764
2023-05-05T03:48:13.070Z,50.852779
2023-05-05T03:49:13.018Z,50.852825
2023-05-05T03:50:13.025Z,50.852791
2023-05-05T03:51:12.995Z,50.852837
2023-05-05T03:52:14.957Z,50.852879
2023-05-05T03:53:12.972Z,50.852848
2023-05-05T03:54:13.042Z,50.852848
2023-05-05T03:55:12.973Z,50.852810
2023-05-05T03:56:12.990Z,50.852810
2023-05-05T03:57:12.962Z,50.852825
2023-05-05T03:58:12.972Z,50.852795
2023-05-05T03:59:12.968Z,50.852795
2023-05-05T04:00:12.958Z,50.852829
2023-05-05T04:01:12.981Z,50.852798
2023-05-05T04:02:12.979Z,50.852806
2023-05-05T04:03:13.128Z,50.852829
2023-05-05T04:04:13.047Z,50.852825
2023-05-05T04:05:12.901Z,50.852810
2023-05-05T04:06:12.937Z,50.852829
2023-05-05T04:07:12.901Z,50.852802
2023-05-05T04:08:12.921Z,50.852837
2023-05-05T04:09:12.911Z,50.852829
2023-05-05T04:10:12.902Z,50.852856
2023-05-05T04:11:12.920Z,50.852837
2023-05-05T04:12:12.887Z,50.852829
2023-05-05T04:13:12.895Z,50.852837
2023-05-05T04:14:12.931Z,50.852863
2023-05-05T04:15:12.850Z,50.852844
2023-05-05T04:16:12.925Z,50.852844
2023-05-05T04:17:12.850Z,50.852844
2023-05-05T04:18:12.851Z,50.852852
2023-05-05T04:19:12.868Z,50.852810
2023-05-05T04:20:12.858Z,50.852825
2023-05-05T04:21:12.826Z,50.852821
2023-05-05T04:22:12.832Z,50.852829
2023-05-05T04:23:12.832Z,50.852825
2023-05-05T04:24:12.856Z,50.852802
2023-05-05T04:25:12.813Z,50.852795
2023-05-05T04:26:12.817Z,50.852779
2023-05-05T04:27:12.821Z,50.852810
2023-05-05T04:28:12.802Z,50.852818
2023-05-05T04:29:12.807Z,50.852840
2023-05-05T04:30:12.795Z,50.852848
2023-05-05T04:31:12.807Z,50.852802
2023-05-05T04:32:12.770Z,50.852871
2023-05-05T04:33:12.762Z,50.852852
2023-05-05T04:34:12.804Z,50.852856
2023-05-05T04:35:12.744Z,50.852787
2023-05-05T04:36:12.760Z,50.852837
2023-05-05T04:37:12.741Z,50.852810
2023-05-05T04:38:12.735Z,50.852814
2023-05-05T04:39:12.726Z,50.852791
2023-05-05T04:40:12.762Z,50.852791
2023-05-05T04:41:12.714Z,50.852806
2023-05-05T04:42:12.742Z,50.852802
2023-05-05T04:43:12.703Z,50.852764
2023-05-05T04:44:12.713Z,50.852802
2023-05-05T04:45:12.721Z,50.852814
2023-05-05T04:46:12.738Z,50.852840
2023-05-05T04:47:14.537Z,50.852848
2023-05-05T04:48:12.761Z,50.852818
2023-05-05T04:49:12.694Z,50.852833
2023-05-05T04:50:12.724Z,50.852806
2023-05-05T04:51:12.730Z,50.852787
2023-05-05T04:52:12.702Z,50.852768
2023-05-05T04:53:12.651Z,50.852798
2023-05-05T04:54:12.652Z,50.852760
2023-05-05T04:55:12.649Z,50.852772
2023-05-05T04:56:12.653Z,50.852806
2023-05-05T04:57:12.621Z,50.852863
2023-05-05T04:58:12.633Z,50.852810
2023-05-05T04:59:12.637Z,50.852810
2023-05-05T05:00:12.651Z,50.852818
2023-05-05T05:01:12.642Z,50.852802
2023-05-05T05:02:12.719Z,50.852848
2023-05-05T05:03:12.680Z,50.852833
2023-05-05T05:04:12.618Z,50.852791
2023-05-05T05:05:12.606Z,50.852787
2023-05-05T05:06:12.601Z,50.852757
2023-05-05T05:07:12.579Z,50.852776
2023-05-05T05:08:12.564Z,50.852753
2023-05-05T05:09:12.565Z,50.852802
2023-05-05T05:10:12.577Z,50.852757
2023-05-05T05:11:12.550Z,50.852768
2023-05-05T05:12:12.540Z,50.852806
2023-05-05T05:13:13.087Z,50.852818
2023-05-05T05:14:12.534Z,50.852806
2023-05-05T05:15:12.500Z,50.852814
2023-05-05T05:16:12.545Z,50.852810
2023-05-05T05:17:12.488Z,50.852840
2023-05-05T05:18:12.513Z,50.852818
2023-05-05T05:19:12.542Z,50.852798
2023-05-05T05:20:12.498Z,50.852791
2023-05-05T05:21:12.469Z,50.852810
2023-05-05T05:22:12.501Z,50.852818
2023-05-05T05:23:12.452Z,50.852833
2023-05-05T05:24:12.493Z,50.852837
2023-05-05T05:25:12.484Z,50.852818
2023-05-05T05:26:12.461Z,50.852833
2023-05-05T05:27:12.437Z,50.852844
2023-05-05T05:28:12.477Z,50.852859
2023-05-05T05:29:12.448Z,50.852825
2023-05-05T05:30:12.443Z,50.852833
2023-05-05T05:31:12.429Z,50.852818
2023-05-05T05:32:12.476Z,50.852806
2023-05-05T05:33:12.440Z,50.852798
2023-05-05T05:34:12.970Z,50.852829
2023-05-05T05:35:12.385Z,50.852798
2023-05-05T05:36:12.434Z,50.852787
2023-05-05T05:37:12.395Z,50.852818
2023-05-05T05:38:12.383Z,50.852837
2023-05-05T05:39:12.363Z,50.852837
2023-05-05T05:40:12.395Z,50.852821
2023-05-05T05:41:12.346Z,50.852821
2023-05-05T05:42:12.375Z,50.852814
2023-05-05T05:43:12.329Z,50.852821
2023-05-05T05:44:12.340Z,50.852814
2023-05-05T05:45:12.336Z,50.852810
2023-05-05T05:46:12.339Z,50.852810
2023-05-05T05:47:12.291Z,50.852818
2023-05-05T05:48:12.333Z,50.852802
2023-05-05T05:49:12.284Z,50.852791
2023-05-05T05:50:12.290Z,50.852806
2023-05-05T05:51:12.294Z,50.852825
2023-05-05T05:52:12.294Z,50.852818
2023-05-05T05:53:12.257Z,50.852810
2023-05-05T05:54:12.267Z,50.852844
2023-05-05T05:55:12.264Z,50.852833
2023-05-05T05:56:12.296Z,50.852795
2023-05-05T05:57:12.243Z,50.852787
2023-05-05T05:58:12.230Z,50.852818
2023-05-05T05:59:12.237Z,50.852791
2023-05-05T06:00:12.206Z,50.852810
2023-05-05T06:01:12.207Z,50.852802
2023-05-05T06:02:12.252Z,50.852776
2023-05-05T06:03:12.431Z,50.852776
2023-05-05T06:04:12.230Z,50.852806
2023-05-05T06:05:12.181Z,50.852795
2023-05-05T06:06:12.163Z,50.852791
2023-05-05T06:07:12.158Z,50.852787
2023-05-05T06:08:12.187Z,50.852779
2023-05-05T06:09:12.129Z,50.852783
2023-05-05T06:10:26.653Z,50.852783
2023-05-05T06:11:13.121Z,50.852783
2023-05-05T06:12:12.121Z,50.852787
2023-05-05T06:13:12.177Z,50.852783
2023-05-05T06:14:12.141Z,50.852779
2023-05-05T06:15:12.083Z,50.852764
2023-05-05T06:16:12.183Z,50.852760
2023-05-05T06:17:12.069Z,50.852798
2023-05-05T06:18:12.135Z,50.852791
2023-05-05T06:19:12.052Z,50.852783
2023-05-05T06:20:12.080Z,50.852810
2023-05-05T06:21:12.038Z,50.852818
2023-05-05T06:22:12.044Z,50.852776
2023-05-05T06:23:12.005Z,50.852787
2023-05-05T06:24:12.010Z,50.852779
2023-05-05T06:25:11.993Z,50.852787
2023-05-05T06:26:12.017Z,50.852772
2023-05-05T06:27:12.004Z,50.852768
2023-05-05T06:28:12.013Z,50.852795
2023-05-05T06:29:12.453Z,50.852783
2023-05-05T06:30:11.984Z,50.852783
2023-05-05T06:31:11.993Z,50.852760
2023-05-05T06:32:11.950Z,50.852776
2023-05-05T06:33:11.951Z,50.852776
2023-05-05T06:34:11.943Z,50.852795
2023-05-05T06:35:11.916Z,50.852798
2023-05-05T06:36:12.023Z,50.852791
2023-05-05T06:37:11.900Z,50.852795
2023-05-05T06:38:11.907Z,50.852787
2023-05-05T06:39:12.670Z,50.852772
2023-05-05T06:40:11.898Z,50.852783
2023-05-05T06:41:11.908Z,50.852764
2023-05-05T06:42:11.879Z,50.852772
2023-05-05T06:43:11.867Z,50.852798
2023-05-05T06:44:11.878Z,50.852795
2023-05-05T06:45:11.837Z,50.852787
2023-05-05T06:46:11.897Z,50.852787
2023-05-05T06:47:11.825Z,50.852791
2023-05-05T06:48:11.937Z,50.852806
2023-05-05T06:49:11.808Z,50.852791
2023-05-05T06:50:11.844Z,50.852779
2023-05-05T06:51:11.815Z,50.852787
2023-05-05T06:52:11.821Z,50.852791
2023-05-05T06:53:11.776Z,50.852818
2023-05-05T06:54:11.799Z,50.852810
2023-05-05T06:55:11.792Z,50.852802
2023-05-05T06:56:11.891Z,50.852810
2023-05-05T06:57:11.773Z,50.852802
2023-05-05T06:58:11.757Z,50.852791
2023-05-05T06:59:11.743Z,50.852779
2023-05-05T07:00:11.751Z,50.852745
2023-05-05T07:01:11.766Z,50.852764
2023-05-05T07:02:11.732Z,50.852764
2023-05-05T07:03:11.897Z,50.852768
2023-05-05T07:04:11.911Z,50.852753
2023-05-05T07:05:11.714Z,50.852783
2023-05-05T07:06:11.714Z,50.852779
2023-05-05T07:07:11.680Z,50.852776
2023-05-05T07:08:11.710Z,50.852783
2023-05-05T07:09:11.663Z,50.852764
2023-05-05T07:10:11.691Z,50.852768
2023-05-05T07:11:11.663Z,50.852753
2023-05-05T07:12:11.696Z,50.852768
2023-05-05T07:13:11.797Z,50.852734
2023-05-05T07:14:11.679Z,50.852718
2023-05-05T07:15:26.116Z,50.852745
2023-05-05T07:16:12.660Z,50.852734
2023-05-05T07:17:11.759Z,50.852737
2023-05-05T07:18:12.604Z,50.852730
2023-05-05T07:19:11.606Z,50.852730
2023-05-05T07:20:11.745Z,50.852707
2023-05-05T07:21:11.622Z,50.852737
2023-05-05T07:22:11.614Z,50.852737
2023-05-05T07:23:11.571Z,50.852737
2023-05-05T07:24:11.587Z,50.852757
2023-05-05T07:25:11.560Z,50.852749
2023-05-05T07:26:11.590Z,50.852791
2023-05-05T07:27:11.564Z,50.852772
2023-05-05T07:28:11.573Z,50.852802
2023-05-05T07:29:11.687Z,50.852795
2023-05-05T07:30:14.738Z,50.852757
2023-05-05T07:31:12.518Z,50.852764
2023-05-05T07:32:11.543Z,50.852730
2023-05-05T07:33:11.547Z,50.852772
2023-05-05T07:34:11.554Z,50.852749
2023-05-05T07:35:11.522Z,50.852764
2023-05-05T07:36:11.575Z,50.852776
2023-05-05T07:37:11.474Z,50.852768
2023-05-05T07:38:11.489Z,50.852768
2023-05-05T07:39:11.475Z,50.852791
2023-05-05T07:40:11.663Z,50.852772
2023-05-05T07:41:11.454Z,50.852776
2023-05-05T07:42:11.463Z,50.852760
2023-05-05T07:43:11.452Z,50.852757
2023-05-05T07:44:11.446Z,50.852798
2023-05-05T07:45:11.431Z,50.852757
2023-05-05T07:46:11.497Z,50.852745
2023-05-05T07:47:11.399Z,50.852734
2023-05-05T07:48:11.438Z,50.852741
2023-05-05T07:49:11.440Z,50.852776
2023-05-05T07:50:11.665Z,50.852844
2023-05-05T07:51:11.381Z,50.852791
2023-05-05T07:52:11.563Z,50.852749
2023-05-05T07:53:14.756Z,50.852768
2023-05-05T07:54:11.375Z,50.852753
2023-05-05T07:55:11.372Z,50.852776
2023-05-05T07:56:11.356Z,50.852764
2023-05-05T07:57:11.360Z,50.852802
2023-05-05T07:58:11.344Z,50.852779
2023-05-05T07:59:11.333Z,50.852764
2023-05-05T08:00:11.614Z,50.852760
2023-05-05T08:01:11.349Z,50.852745
2023-05-05T08:02:11.369Z,50.852753
2023-05-05T08:03:12.130Z,50.852753
2023-05-05T08:04:11.414Z,50.852737
2023-05-05T08:05:11.474Z,50.852730
2023-05-05T08:06:11.316Z,50.852741
2023-05-05T08:07:11.265Z,50.852776
2023-05-05T08:08:11.346Z,50.852772
2023-05-05T08:09:11.251Z,50.852779
2023-05-05T08:10:11.315Z,50.852772
2023-05-05T08:11:11.244Z,50.852760
2023-05-05T08:12:11.273Z,50.852722
2023-05-05T08:13:11.256Z,50.852741
2023-05-05T08:14:11.240Z,50.852776
2023-05-05T08:15:11.429Z,50.852753
2023-05-05T08:16:11.296Z,50.852764
2023-05-05T08:17:11.237Z,50.852764
2023-05-05T08:18:11.213Z,50.852734
2023-05-05T08:19:25.095Z,50.852764
2023-05-05T08:20:12.212Z,50.852757
2023-05-05T08:21:11.170Z,50.852772
2023-05-05T08:22:11.196Z,50.852760
2023-05-05T08:23:11.170Z,50.852741
2023-05-05T08:24:11.289Z,50.852718
2023-05-05T08:25:11.185Z,50.852753
2023-05-05T08:26:11.176Z,50.852753
2023-05-05T08:27:11.140Z,50.852795
2023-05-05T08:28:11.147Z,50.852737
2023-05-05T08:29:11.127Z,50.852726
2023-05-05T08:30:11.183Z,50.852833
2023-05-05T08:31:11.153Z,50.852730
2023-05-05T08:32:11.140Z,50.852749
2023-05-05T08:33:11.165Z,50.852798
2023-05-05T08:34:11.103Z,50.852856
2023-05-05T08:35:11.345Z,50.852966
2023-05-05T08:36:11.115Z,50.852928
2023-05-05T08:37:11.081Z,50.852970
2023-05-05T08:38:11.083Z,50.852882
2023-05-05T08:39:11.098Z,50.852810
2023-05-05T08:40:11.121Z,50.852886
2023-05-05T08:41:11.032Z,50.852825
2023-05-05T08:42:11.048Z,50.852833
2023-05-05T08:43:11.036Z,50.852867
2023-05-05T08:44:11.036Z,50.852894
2023-05-05T08:45:11.516Z,50.852894
2023-05-05T08:46:11.017Z,50.852825
2023-05-05T08:47:11.192Z,50.852829
2023-05-05T08:48:11.013Z,50.852779
2023-05-05T08:49:10.992Z,50.852768
2023-05-05T08:50:11.034Z,50.852901
2023-05-05T08:51:10.961Z,50.852760
2023-05-05T08:52:11.010Z,50.852840
2023-05-05T08:53:10.955Z,50.852825
2023-05-05T08:54:10.951Z,50.852844
2023-05-05T08:55:10.958Z,50.852825
2023-05-05T08:56:11.032Z,50.852848
2023-05-05T08:57:10.915Z,50.852840
2023-05-05T08:58:10.931Z,50.852810
2023-05-05T08:59:10.907Z,50.852779
2023-05-05T09:00:10.956Z,50.852798
2023-05-05T09:01:10.984Z,50.852840
2023-05-05T09:02:10.914Z,50.852798
2023-05-05T09:03:10.952Z,50.852833
2023-05-05T09:04:10.913Z,50.852810
2023-05-05T09:05:11.124Z,50.852856
2023-05-05T09:06:10.893Z,50.852863
2023-05-05T09:07:10.855Z,50.852825
2023-05-05T09:08:10.892Z,50.852783
2023-05-05T09:09:10.842Z,50.852749
2023-05-05T09:10:10.847Z,50.852730
2023-05-05T09:11:10.822Z,50.852779
2023-05-05T09:12:10.952Z,50.852795
2023-05-05T09:13:10.942Z,50.852776
2023-05-05T09:14:10.844Z,50.852802
2023-05-05T09:15:10.919Z,50.852802
2023-05-05T09:16:10.864Z,50.852806
2023-05-05T09:17:10.826Z,50.852776
2023-05-05T09:18:10.939Z,50.852806
2023-05-05T09:19:10.777Z,50.852810
2023-05-05T09:20:10.816Z,50.852802
2023-05-05T09:21:10.762Z,50.852844
2023-05-05T09:22:10.821Z,50.852821
2023-05-05T09:23:10.750Z,50.852814
2023-05-05T09:24:10.759Z,50.852821
2023-05-05T09:25:10.757Z,50.852821
2023-05-05T09:26:10.745Z,50.852806
2023-05-05T09:27:10.720Z,50.852791
2023-05-05T09:28:10.888Z,50.852806
2023-05-05T09:29:10.708Z,50.852863
2023-05-05T09:30:10.734Z,50.852814
2023-05-05T09:31:10.711Z,50.852825
2023-05-05T09:32:10.745Z,50.852802
2023-05-05T09:33:10.697Z,50.852886
2023-05-05T09:34:10.683Z,50.852871
2023-05-05T09:35:10.658Z,50.852814
2023-05-05T09:36:10.668Z,50.852859
2023-05-05T09:37:10.669Z,50.852829
2023-05-05T09:38:10.653Z,50.852818
2023-05-05T09:39:10.628Z,50.852837
2023-05-05T09:40:10.637Z,50.852818
2023-05-05T09:41:10.625Z,50.852840
2023-05-05T09:42:10.621Z,50.852829
2023-05-05T09:43:10.628Z,50.852833
2023-05-05T09:44:10.650Z,50.852795
2023-05-05T09:45:10.595Z,50.852810
2023-05-05T09:46:10.613Z,50.852787
2023-05-05T09:47:26.076Z,50.852802
2023-05-05T09:48:11.635Z,50.852795
2023-05-05T09:49:10.582Z,50.852798
2023-05-05T09:50:10.670Z,50.852818
2023-05-05T09:51:10.558Z,50.852791
2023-05-05T09:52:10.584Z,50.852791
2023-05-05T09:53:10.543Z,50.852802
2023-05-05T09:54:10.549Z,50.852791
2023-05-05T09:55:10.561Z,50.852783
2023-05-05T09:56:10.552Z,50.852806
2023-05-05T09:57:10.510Z,50.852810
2023-05-05T09:58:10.576Z,50.852833
2023-05-05T09:59:10.510Z,50.852814
2023-05-05T10:00:10.867Z,50.852810
2023-05-05T10:01:10.557Z,50.852852
2023-05-05T10:02:10.491Z,50.852806
2023-05-05T10:03:10.498Z,50.852806
2023-05-05T10:04:10.477Z,50.852783
2023-05-05T10:05:10.526Z,50.852741
2023-05-05T10:06:10.474Z,50.852787
2023-05-05T10:07:10.444Z,50.852810
2023-05-05T10:08:10.445Z,50.852825
2023-05-05T10:09:10.421Z,50.852818
2023-05-05T10:10:10.584Z,50.852806
2023-05-05T10:11:10.417Z,50.852795
2023-05-05T10:12:10.442Z,50.852814
2023-05-05T10:13:10.409Z,50.852802
2023-05-05T10:14:10.433Z,50.852810
2023-05-05T10:15:10.416Z,50.852810
2023-05-05T10:16:10.567Z,50.852802
2023-05-05T10:17:10.360Z,50.852753
2023-05-05T10:18:10.389Z,50.852802
2023-05-05T10:19:10.357Z,50.852814
2023-05-05T10:20:10.522Z,50.852856
2023-05-05T10:21:10.351Z,50.852856
2023-05-05T10:22:10.352Z,50.852863
2023-05-05T10:23:10.351Z,50.852859
2023-05-05T10:24:10.330Z,50.852825
2023-05-05T10:25:10.315Z,50.852840
2023-05-05T10:26:10.367Z,50.852829
2023-05-05T10:27:12.105Z,50.852814
2023-05-05T10:28:10.307Z,50.852802
2023-05-05T10:29:10.308Z,50.852814
2023-05-05T10:30:10.479Z,50.852791
2023-05-05T10:31:20.401Z,50.852791
2023-05-05T10:32:33.487Z,50.852802
2023-05-05T10:33:30.159Z,50.852798
2023-05-05T10:34:11.359Z,50.852779
2023-05-05T10:35:10.277Z,50.852810
2023-05-05T10:36:10.259Z,50.852802
2023-05-05T10:37:10.266Z,50.852814
2023-05-05T10:38:10.272Z,50.852791
2023-05-05T10:39:10.221Z,50.852791
2023-05-05T10:40:10.469Z,50.852798
2023-05-05T10:41:10.206Z,50.852787
2023-05-05T10:42:10.217Z,50.852779
2023-05-05T10:43:10.223Z,50.852764
2023-05-05T10:44:10.206Z,50.852760
2023-05-05T10:45:10.255Z,50.852745
2023-05-05T10:46:10.231Z,50.852745
2023-05-05T10:47:10.162Z,50.852711
2023-05-05T10:48:10.373Z,50.852722
2023-05-05T10:49:12.489Z,50.852753
2023-05-05T10:50:10.403Z,50.852760
2023-05-05T10:51:10.144Z,50.852753
2023-05-05T10:52:10.156Z,50.852783
2023-05-05T10:53:10.175Z,50.852764
2023-05-05T10:54:10.257Z,50.852783
2023-05-05T10:55:10.116Z,50.852791
2023-05-05T10:56:10.119Z,50.852772
2023-05-05T10:57:10.105Z,50.852772
2023-05-05T10:58:10.145Z,50.852783
2023-05-05T10:59:10.115Z,50.852806
2023-05-05T11:00:10.256Z,50.852783
2023-05-05T11:01:10.097Z,50.852795
2023-05-05T11:02:10.101Z,50.852787
2023-05-05T11:03:10.108Z,50.852791
2023-05-05T11:04:10.103Z,50.852783
2023-05-05T11:05:10.075Z,50.852783
2023-05-05T11:06:10.059Z,50.852791
2023-05-05T11:07:14.300Z,50.852772
2023-05-05T11:08:10.046Z,50.852779
2023-05-05T11:09:10.046Z,50.852810
2023-05-05T11:10:10.265Z,50.852802
2023-05-05T11:11:10.004Z,50.852768
2023-05-05T11:12:10.008Z,50.852779
2023-05-05T11:13:10.031Z,50.852802
2023-05-05T11:14:09.987Z,50.852818
2023-05-05T11:15:09.976Z,50.852764
2023-05-05T11:16:10.010Z,50.852764
2023-05-05T11:17:10.041Z,50.852734
2023-05-05T11:18:10.000Z,50.852745
2023-05-05T11:19:09.955Z,50.852760
2023-05-05T11:20:10.228Z,50.852715
2023-05-05T11:21:09.954Z,50.852757
2023-05-05T11:22:09.976Z,50.852772
2023-05-05T11:23:09.960Z,50.852787
2023-05-05T11:24:09.943Z,50.852764